Time;durP1;ratioP1;P1;durP2;ratioP2;P2;SDS_P1;SDS_P2;PMS_P1;PMS_P2;Temp;Humidity;BMP_temperature;BMP_pressure;BME280_temperature;BME280_humidity;BME280_pressure;Samples;Min_cycle;Max_cycle;Signal;HPM_P1;HPM_P2
2023/07/01 00:01:47;;;;;;;;;12.00;11.00;;;;;21.91;66.51;100132.23;110196;1265;19376;-41
2023/07/01 00:04:14;;;;;;;;;13.00;11.50;;;;;21.91;66.56;100136.56;110179;1251;22438;-41
2023/07/01 00:06:42;;;;;;;;;12.00;11.00;;;;;21.89;66.35;100137.34;110205;1265;18706;-39
2023/07/01 00:09:10;;;;;;;;;14.00;12.67;;;;;21.92;66.47;100134.63;110194;1265;19321;-41
2023/07/01 00:11:37;;;;;;;;;12.00;12.00;;;;;21.91;66.40;100130.17;110180;1251;20038;-41
2023/07/01 00:14:05;;;;;;;;;14.00;12.00;;;;;21.90;66.64;100125.47;110185;1257;20891;-40
2023/07/01 00:16:32;;;;;;;;;14.00;12.00;;;;;21.92;66.53;100128.75;110190;1265;23528;-40
2023/07/01 00:19:00;;;;;;;;;22.00;18.00;;;;;21.90;66.49;100133.36;110202;1251;18518;-40
2023/07/01 00:21:27;;;;;;;;;18.00;16.00;;;;;21.89;66.74;100133.77;110165;1250;20259;-41
2023/07/01 00:23:55;;;;;;;;;14.00;12.00;;;;;21.85;66.59;100128.20;110197;1265;22088;-39
2023/07/01 00:26:22;;;;;;;;;15.67;15.00;;;;;21.84;66.58;100132.02;110184;1265;19967;-39
2023/07/01 00:28:49;;;;;;;;;14.50;14.50;;;;;21.81;66.81;100130.32;110196;1251;19984;-41
2023/07/01 00:31:16;;;;;;;;;15.00;15.00;;;;;21.82;66.62;100136.06;110189;1250;20976;-40
2023/07/01 00:33:44;;;;;;;;;18.00;14.00;;;;;21.77;66.64;100134.23;110174;1260;19990;-39
2023/07/01 00:36:11;;;;;;;;;14.00;11.00;;;;;21.80;66.39;100133.95;110152;1265;23006;-41
2023/07/01 00:38:38;;;;;;;;;17.00;11.00;;;;;21.72;66.34;100128.28;110239;1266;22184;-40
2023/07/01 00:41:06;;;;;;;;;15.67;12.00;;;;;21.74;66.52;100128.95;110268;1251;20026;-41
2023/07/01 00:43:33;;;;;;;;;11.00;11.00;;;;;21.75;66.09;100123.92;110238;1265;18723;-41
2023/07/01 00:46:00;;;;;;;;;10.00;8.00;;;;;21.75;65.91;100119.77;110219;1265;21871;-40
2023/07/01 00:48:28;;;;;;;;;11.00;10.00;;;;;21.70;65.43;100117.23;110195;1260;20062;-40
2023/07/01 00:50:55;;;;;;;;;11.00;10.00;;;;;21.69;65.04;100117.41;110163;1265;18789;-39
2023/07/01 00:53:22;;;;;;;;;10.00;8.00;;;;;21.70;64.51;100127.43;110311;1251;22143;-38
2023/07/01 00:55:50;;;;;;;;;7.50;7.00;;;;;21.63;64.06;100128.61;110273;1265;22985;-42
2023/07/01 00:58:17;;;;;;;;;8.00;7.67;;;;;21.59;63.34;100132.88;109994;1251;360696;-39
2023/07/01 01:00:44;;;;;;;;;5.00;5.00;;;;;21.61;62.79;100126.63;110272;1251;20789;-39
2023/07/01 01:03:20;;;;;;;;;7.33;7.33;;;;;21.68;62.35;100120.43;110275;1251;19633;-39
2023/07/01 01:05:48;;;;;;;;;5.00;5.00;;;;;21.62;61.80;100118.30;110208;1265;19404;-40
2023/07/01 01:08:15;;;;;;;;;7.00;7.00;;;;;21.59;61.37;100111.02;110171;1251;20766;-40
2023/07/01 01:10:42;;;;;;;;;9.33;8.67;;;;;21.56;61.15;100104.98;110188;1265;18832;-40
2023/07/01 01:13:10;;;;;;;;;8.00;8.00;;;;;21.56;60.73;100107.20;110181;1265;18624;-40
2023/07/01 01:15:37;;;;;;;;;10.00;8.00;;;;;21.53;60.71;100112.05;110269;1266;22293;-39
2023/07/01 01:18:04;;;;;;;;;7.00;7.00;;;;;21.55;60.62;100113.33;110236;1260;19449;-40
2023/07/01 01:20:33;;;;;;;;;7.00;7.00;;;;;21.54;60.79;100109.75;110205;1250;21176;-40
2023/07/01 01:23:00;;;;;;;;;7.00;7.00;;;;;21.56;60.72;100107.25;110178;1251;20810;-40
2023/07/01 01:25:29;;;;;;;;;4.50;4.50;;;;;21.55;60.74;100103.55;110220;1265;18971;-39
2023/07/01 01:27:57;;;;;;;;;6.67;5.67;;;;;21.52;61.06;100098.84;110259;1251;20081;-38
2023/07/01 01:30:24;;;;;;;;;5.00;5.00;;;;;21.47;61.31;100090.68;110231;1251;20809;-40
2023/07/01 01:32:52;;;;;;;;;7.00;7.00;;;;;21.46;61.46;100089.30;110294;1265;18300;-40
2023/07/01 01:35:19;;;;;;;;;7.00;7.00;;;;;21.45;61.75;100095.00;110188;1265;18613;-40
2023/07/01 01:37:46;;;;;;;;;9.00;8.00;;;;;21.44;62.20;100097.77;110112;1251;22166;-40
2023/07/01 01:40:14;;;;;;;;;7.33;7.33;;;;;21.41;62.27;100098.15;110181;1266;18410;-39
2023/07/01 01:42:41;;;;;;;;;7.00;7.00;;;;;21.38;62.19;100103.71;110216;1251;21260;-39
2023/07/01 01:45:09;;;;;;;;;6.00;6.00;;;;;21.39;62.46;100105.13;110263;1265;19464;-39
2023/07/01 01:47:36;;;;;;;;;5.00;5.00;;;;;21.39;62.50;100111.67;110295;1251;19633;-39
2023/07/01 01:50:03;;;;;;;;;10.00;8.00;;;;;21.33;62.87;100116.45;110236;1250;18699;-38
2023/07/01 01:52:31;;;;;;;;;10.00;8.00;;;;;21.32;62.95;100114.17;110184;1266;19356;-40
2023/07/01 01:54:58;;;;;;;;;7.00;7.00;;;;;21.28;62.99;100114.60;110183;1265;18565;-41
2023/07/01 01:57:25;;;;;;;;;8.00;8.00;;;;;21.27;63.04;100114.81;110215;1266;18895;-41
2023/07/01 01:59:53;;;;;;;;;8.00;8.00;;;;;21.32;63.01;100111.12;110199;1265;19823;-40
2023/07/01 02:02:20;;;;;;;;;7.00;7.00;;;;;21.32;62.82;100104.15;110218;1265;22332;-40
2023/07/01 02:04:47;;;;;;;;;7.00;7.00;;;;;21.33;62.73;100098.28;110226;1251;19960;-41
2023/07/01 02:07:15;;;;;;;;;7.00;5.00;;;;;21.27;62.66;100100.36;110298;1265;22805;-41
2023/07/01 02:09:42;;;;;;;;;5.00;5.00;;;;;21.26;62.65;100102.38;110262;1251;19508;-41
2023/07/01 02:12:09;;;;;;;;;5.00;5.00;;;;;21.27;62.44;100104.58;110144;1251;20526;-38
2023/07/01 02:14:37;;;;;;;;;8.00;7.00;;;;;21.22;62.56;100107.64;110133;1250;20759;-39
2023/07/01 02:17:04;;;;;;;;;10.00;8.00;;;;;21.18;62.90;100106.88;110123;1251;19598;-39
2023/07/01 02:19:32;;;;;;;;;7.00;7.00;;;;;21.19;62.77;100102.48;110231;1265;21072;-40
2023/07/01 02:21:59;;;;;;;;;7.00;7.00;;;;;21.20;62.79;100107.70;110273;1251;20796;-39
2023/07/01 02:24:26;;;;;;;;;7.00;7.00;;;;;21.17;62.88;100110.39;110275;1260;19628;-38
2023/07/01 02:26:54;;;;;;;;;10.00;8.00;;;;;21.17;62.77;100111.19;110284;1266;21592;-38
2023/07/01 02:29:21;;;;;;;;;7.00;6.33;;;;;21.11;62.85;100111.72;110247;1250;19359;-40
2023/07/01 02:31:48;;;;;;;;;7.00;7.00;;;;;21.10;63.14;100115.55;110172;1251;24088;-39
2023/07/01 02:34:16;;;;;;;;;5.00;5.00;;;;;21.08;63.04;100119.98;110209;1251;20241;-40
2023/07/01 02:36:43;;;;;;;;;11.00;10.00;;;;;21.12;62.85;100116.55;110200;1250;20736;-40
2023/07/01 02:39:10;;;;;;;;;10.00;8.00;;;;;21.11;62.98;100115.73;110240;1251;22392;-40
2023/07/01 02:41:38;;;;;;;;;8.00;8.00;;;;;21.10;63.27;100114.80;110187;1251;20111;-41
2023/07/01 02:44:05;;;;;;;;;8.00;8.00;;;;;21.17;63.14;100112.56;110212;1251;21076;-41
2023/07/01 02:46:32;;;;;;;;;8.00;8.00;;;;;21.16;63.02;100116.63;110176;1251;19629;-40
2023/07/01 02:49:00;;;;;;;;;8.00;8.00;;;;;21.14;63.24;100119.46;110185;1251;20133;-40
2023/07/01 02:51:27;;;;;;;;;8.00;8.00;;;;;21.16;63.18;100116.23;110213;1251;20643;-39
2023/07/01 02:53:54;;;;;;;;;10.00;8.00;;;;;21.09;63.16;100104.31;110197;1265;22748;-39
2023/07/01 02:56:22;;;;;;;;;8.00;7.00;;;;;21.07;63.24;100105.89;110174;1251;22159;-39
2023/07/01 02:58:49;;;;;;;;;13.00;10.00;;;;;21.11;63.14;100111.80;110237;1251;20888;-40
2023/07/01 03:01:16;;;;;;;;;21.00;14.00;;;;;21.14;62.74;100114.42;110130;1250;19884;-40
2023/07/01 03:03:44;;;;;;;;;14.00;13.00;;;;;21.12;62.84;100116.92;110164;1250;20153;-40
2023/07/01 03:06:12;;;;;;;;;13.00;11.00;;;;;21.06;62.93;100121.09;110282;1251;20719;-40
2023/07/01 03:08:39;;;;;;;;;13.00;11.00;;;;;21.06;62.73;100124.13;110183;1251;20057;-40
2023/07/01 03:11:07;;;;;;;;;9.00;9.00;;;;;21.03;62.96;100125.80;110199;1251;20122;-40
2023/07/01 03:13:37;;;;;;;;;13.00;11.00;;;;;20.99;63.03;100130.16;110224;1265;21925;-40
2023/07/01 03:16:06;;;;;;;;;10.00;8.00;;;;;21.01;63.06;100129.67;110211;1250;19645;-39
2023/07/01 03:18:33;;;;;;;;;10.00;8.00;;;;;21.02;62.70;100128.77;110253;1259;19824;-40
2023/07/01 03:21:02;;;;;;;;;19.50;15.50;;;;;20.97;62.89;100128.17;110206;1250;20738;-40
2023/07/01 03:23:30;;;;;;;;;20.00;19.00;;;;;20.97;62.70;100128.89;110190;1251;20077;-39
2023/07/01 03:25:57;;;;;;;;;17.50;16.00;;;;;20.94;62.89;100128.77;110203;1250;22031;-40
2023/07/01 03:28:24;;;;;;;;;14.00;12.33;;;;;20.90;63.20;100129.44;110231;1265;19343;-40
2023/07/01 03:30:52;;;;;;;;;14.00;14.00;;;;;20.93;63.05;100126.66;110238;1260;19613;-40
2023/07/01 03:33:19;;;;;;;;;26.00;23.00;;;;;20.93;63.30;100114.34;110187;1265;18708;-39
2023/07/01 03:35:46;;;;;;;;;22.50;20.50;;;;;20.97;63.29;100113.13;110238;1251;20857;-39
2023/07/01 03:38:14;;;;;;;;;20.00;17.00;;;;;20.97;63.18;100111.87;110253;1251;20027;-40
2023/07/01 03:40:41;;;;;;;;;10.00;9.00;;;;;20.98;62.93;100111.54;110196;1250;20193;-40
2023/07/01 03:43:08;;;;;;;;;11.00;10.00;;;;;20.94;63.04;100114.22;110189;1251;19349;-39
2023/07/01 03:45:36;;;;;;;;;8.00;8.00;;;;;20.94;63.26;100119.67;110214;1251;20176;-41
2023/07/01 03:48:03;;;;;;;;;8.00;8.00;;;;;20.96;63.05;100117.02;110210;1251;22917;-41
2023/07/01 03:50:30;;;;;;;;;14.00;13.00;;;;;20.99;63.05;100118.71;110278;1251;20709;-41
2023/07/01 03:52:58;;;;;;;;;14.00;14.00;;;;;20.98;62.98;100124.65;110218;1251;19563;-40
2023/07/01 03:55:25;;;;;;;;;11.00;10.00;;;;;20.97;62.68;100117.69;110190;1265;18731;-40
2023/07/01 03:57:53;;;;;;;;;13.00;10.67;;;;;20.92;62.89;100116.30;110183;1265;19318;-41
2023/07/01 04:00:21;;;;;;;;;14.00;11.00;;;;;20.93;62.75;100106.55;110189;1251;22090;-40
2023/07/01 04:02:48;;;;;;;;;10.00;10.00;;;;;20.96;62.85;100105.98;110097;1260;19972;-40
2023/07/01 04:05:16;;;;;;;;;11.50;10.50;;;;;20.94;62.75;100102.95;110219;1250;20859;-38
2023/07/01 04:07:43;;;;;;;;;10.00;8.67;;;;;20.89;62.83;100100.56;110264;1265;18614;-39
2023/07/01 04:10:11;;;;;;;;;10.00;10.00;;;;;20.91;62.75;100095.91;110259;1250;20273;-40
2023/07/01 04:12:38;;;;;;;;;8.00;8.00;;;;;20.93;62.69;100096.91;110252;1265;21003;-38
2023/07/01 04:15:09;;;;;;;;;8.00;8.00;;;;;20.96;62.66;100094.59;110217;1265;22171;-40
2023/07/01 04:17:37;;;;;;;;;7.00;7.00;;;;;20.97;62.67;100099.54;110209;1265;20102;-40
2023/07/01 04:20:06;;;;;;;;;10.00;10.00;;;;;20.97;62.53;100095.05;110187;1251;20737;-40
2023/07/01 04:22:33;;;;;;;;;10.00;10.00;;;;;20.96;62.50;100098.39;110215;1250;20782;-40
2023/07/01 04:25:01;;;;;;;;;7.00;7.00;;;;;20.94;62.30;100096.20;110266;1251;20161;-39
2023/07/01 04:27:28;;;;;;;;;9.00;7.00;;;;;20.90;62.31;100102.75;110250;1251;22276;-38
2023/07/01 04:29:55;;;;;;;;;14.00;13.00;;;;;20.89;62.44;100110.52;110185;1251;19628;-40
2023/07/01 04:32:23;;;;;;;;;13.00;11.00;;;;;20.86;62.30;100097.96;110184;1251;20099;-40
2023/07/01 04:34:50;;;;;;;;;13.50;10.00;;;;;20.87;62.50;100098.94;110182;1251;22028;-39
2023/07/01 04:37:18;;;;;;;;;11.00;11.00;;;;;20.89;62.43;100100.54;110174;1265;18595;-40
2023/07/01 04:39:45;;;;;;;;;14.00;13.00;;;;;20.91;62.26;100102.63;110193;1251;21476;-39
2023/07/01 04:42:12;;;;;;;;;10.50;10.00;;;;;20.96;62.05;100100.88;110219;1250;19335;-40
2023/07/01 04:44:40;;;;;;;;;10.00;10.00;;;;;20.88;61.95;100097.73;110217;1259;22877;-39
2023/07/01 04:47:08;;;;;;;;;10.00;10.00;;;;;20.85;62.31;100092.27;110289;1265;18733;-39
2023/07/01 04:49:35;;;;;;;;;10.00;10.00;;;;;20.85;62.12;100088.44;110161;1265;21970;-39
2023/07/01 04:52:03;;;;;;;;;7.50;7.00;;;;;20.85;61.92;100097.98;110187;1265;18676;-40
2023/07/01 04:54:30;;;;;;;;;8.00;8.00;;;;;20.83;62.07;100095.29;110197;1250;20171;-39
2023/07/01 04:56:57;;;;;;;;;8.00;7.00;;;;;20.82;62.03;100094.82;110212;1265;19379;-40
2023/07/01 04:59:25;;;;;;;;;8.00;8.00;;;;;20.81;62.02;100085.04;110186;1265;20158;-40
2023/07/01 05:01:52;;;;;;;;;11.00;7.00;;;;;20.81;62.19;100085.55;110222;1265;18689;-40
2023/07/01 05:04:20;;;;;;;;;8.67;8.67;;;;;20.82;62.11;100088.37;110180;1251;20842;-40
2023/07/01 05:06:47;;;;;;;;;7.00;5.00;;;;;20.87;61.81;100088.62;110207;1260;20167;-39
2023/07/01 05:09:15;;;;;;;;;7.50;7.00;;;;;20.86;62.10;100093.48;110219;1265;18658;-40
2023/07/01 05:11:42;;;;;;;;;10.00;7.00;;;;;20.93;62.09;100094.36;110212;1250;21790;-38
2023/07/01 05:14:09;;;;;;;;;10.00;8.00;;;;;20.98;62.04;100096.25;110147;1266;20339;-38
2023/07/01 05:16:37;;;;;;;;;10.00;10.00;;;;;20.96;61.91;100094.58;110206;1251;20306;-38
2023/07/01 05:19:04;;;;;;;;;10.00;8.00;;;;;20.96;61.79;100103.23;110272;1251;23108;-38
2023/07/01 05:21:31;;;;;;;;;10.00;10.00;;;;;20.99;61.74;100105.61;110190;1252;18578;-39
2023/07/01 05:23:59;;;;;;;;;8.00;8.00;;;;;21.00;61.63;100101.50;110156;1251;20256;-39
2023/07/01 05:26:26;;;;;;;;;10.00;8.00;;;;;20.96;61.59;100102.01;110165;1251;22208;-40
2023/07/01 05:28:54;;;;;;;;;11.00;8.00;;;;;21.08;61.61;100100.90;110141;1260;19464;-38
2023/07/01 05:31:22;;;;;;;;;8.00;7.00;;;;;21.11;61.12;100097.76;110164;1259;20167;-39
2023/07/01 05:33:49;;;;;;;;;7.00;7.00;;;;;21.12;60.97;100099.62;110190;1251;21143;-39
2023/07/01 05:36:17;;;;;;;;;9.00;8.00;;;;;21.16;60.57;100094.71;110224;1265;18399;-40
2023/07/01 05:38:44;;;;;;;;;9.00;9.00;;;;;21.17;60.61;100095.77;110216;1265;20850;-38
2023/07/01 05:41:12;;;;;;;;;7.33;7.00;;;;;21.22;60.51;100097.30;110177;1257;23835;-40
2023/07/01 05:43:39;;;;;;;;;10.00;8.00;;;;;21.24;60.27;100099.60;110094;1250;20907;-40
2023/07/01 05:46:06;;;;;;;;;7.50;6.00;;;;;21.29;59.88;100093.62;110093;1265;18514;-38
2023/07/01 05:48:34;;;;;;;;;7.00;7.00;;;;;21.31;59.68;100103.17;110104;1265;19374;-39
2023/07/01 05:51:01;;;;;;;;;5.00;5.00;;;;;21.24;59.62;100098.39;110119;1251;22914;-39
2023/07/01 05:53:28;;;;;;;;;8.00;7.50;;;;;21.22;59.42;100095.64;110151;1249;20480;-39
2023/07/01 05:55:56;;;;;;;;;7.00;7.00;;;;;21.19;59.17;100089.08;110120;1265;20675;-39
2023/07/01 05:58:23;;;;;;;;;5.00;5.00;;;;;21.22;58.77;100091.78;110120;1251;19693;-39
2023/07/01 06:00:50;;;;;;;;;7.00;7.00;;;;;21.27;58.09;100095.89;110101;1251;20126;-38
2023/07/01 06:03:18;;;;;;;;;8.00;8.00;;;;;21.27;57.84;100099.37;110110;1251;22182;-40
2023/07/01 06:05:45;;;;;;;;;7.50;6.50;;;;;21.30;58.03;100101.91;110160;1251;19648;-39
2023/07/01 06:08:12;;;;;;;;;7.00;7.00;;;;;21.33;58.03;100102.02;110137;1265;20039;-40
2023/07/01 06:10:40;;;;;;;;;5.67;5.67;;;;;21.38;57.87;100101.80;110205;1251;20786;-40
2023/07/01 06:13:07;;;;;;;;;10.50;10.00;;;;;21.39;57.98;100097.42;110175;1251;19637;-40
2023/07/01 06:15:34;;;;;;;;;7.00;6.00;;;;;21.49;57.71;100096.71;110197;1259;20429;-40
2023/07/01 06:18:02;;;;;;;;;6.00;5.00;;;;;21.53;57.63;100097.59;110189;1251;20804;-40
2023/07/01 06:20:29;;;;;;;;;5.00;5.00;;;;;21.63;57.51;100098.20;110163;1265;18371;-40
2023/07/01 06:22:56;;;;;;;;;7.50;6.00;;;;;21.65;57.20;100099.02;110210;1265;18584;-38
2023/07/01 06:25:24;;;;;;;;;7.00;7.00;;;;;21.60;57.19;100097.27;110277;1251;20731;-40
2023/07/01 06:27:51;;;;;;;;;10.00;7.00;;;;;21.57;57.07;100098.95;110258;1259;19849;-40
2023/07/01 06:30:18;;;;;;;;;7.00;7.00;;;;;21.62;56.79;100095.59;110167;1249;18676;-40
2023/07/01 06:32:46;;;;;;;;;7.00;7.00;;;;;21.58;56.92;100098.28;110220;1251;20641;-40
2023/07/01 06:35:13;;;;;;;;;5.00;5.00;;;;;21.65;56.66;100096.54;110264;1251;19698;-39
2023/07/01 06:37:40;;;;;;;;;7.00;7.00;;;;;21.79;56.48;100095.14;110248;1265;18639;-39
2023/07/01 06:40:08;;;;;;;;;5.00;5.00;;;;;21.86;56.39;100093.66;110262;1250;20924;-40
2023/07/01 06:42:36;;;;;;;;;7.33;7.33;;;;;21.89;56.38;100090.24;110197;1251;22803;-40
2023/07/01 06:45:04;;;;;;;;;5.00;5.00;;;;;21.99;56.32;100088.80;110193;1265;18782;-41
2023/07/01 06:47:31;;;;;;;;;8.00;7.33;;;;;22.07;55.96;100095.69;110298;1251;22930;-40
2023/07/01 06:49:58;;;;;;;;;7.00;7.00;;;;;22.10;55.69;100094.93;110184;1265;18385;-40
2023/07/01 06:52:26;;;;;;;;;8.00;7.00;;;;;22.21;55.63;100091.21;110238;1251;21791;-40
2023/07/01 06:54:53;;;;;;;;;8.00;8.00;;;;;22.28;55.10;100087.14;110191;1265;19384;-40
2023/07/01 06:57:20;;;;;;;;;7.00;5.00;;;;;22.26;54.64;100090.99;110214;1251;21893;-40
2023/07/01 06:59:48;;;;;;;;;8.00;8.00;;;;;22.21;54.73;100091.36;110198;1265;18591;-40
2023/07/01 07:02:15;;;;;;;;;5.00;5.00;;;;;22.17;54.88;100094.09;110178;1250;19375;-39
2023/07/01 07:04:43;;;;;;;;;8.00;8.00;;;;;22.11;54.70;100088.43;110190;1250;18576;-41
2023/07/01 07:07:10;;;;;;;;;11.00;11.00;;;;;22.18;54.62;100089.27;110208;1265;22184;-37
2023/07/01 07:09:37;;;;;;;;;8.00;8.00;;;;;22.25;54.22;100095.15;110269;1249;19341;-40
2023/07/01 07:12:05;;;;;;;;;7.00;7.00;;;;;22.20;53.91;100093.02;110255;1265;18620;-42
2023/07/01 07:14:32;;;;;;;;;7.50;7.00;;;;;22.25;53.86;100097.92;110255;1251;21178;-39
2023/07/01 07:16:59;;;;;;;;;9.00;8.00;;;;;22.36;53.60;100095.36;110217;1266;19342;-40
2023/07/01 07:19:27;;;;;;;;;9.00;8.00;;;;;22.47;53.47;100095.88;110208;1266;19822;-38
2023/07/01 07:21:54;;;;;;;;;8.00;7.00;;;;;22.38;53.15;100093.95;110220;1251;18877;-38
2023/07/01 07:24:21;;;;;;;;;7.50;7.00;;;;;22.36;52.92;100095.92;110178;1257;21787;-38
2023/07/01 07:26:49;;;;;;;;;7.00;7.00;;;;;22.44;52.79;100096.08;110266;1251;19859;-39
2023/07/01 07:29:16;;;;;;;;;8.00;8.00;;;;;22.51;52.39;100092.61;110255;1265;19670;-40
2023/07/01 07:31:43;;;;;;;;;9.00;8.00;;;;;22.47;51.98;100091.77;110281;1265;19406;-40
2023/07/01 07:34:11;;;;;;;;;8.00;8.00;;;;;22.44;51.56;100091.70;110182;1265;19778;-40
2023/07/01 07:36:38;;;;;;;;;6.00;6.00;;;;;22.39;51.17;100092.91;110227;1251;20069;-40
2023/07/01 07:39:06;;;;;;;;;7.00;7.00;;;;;22.50;50.49;100089.70;110228;1251;20754;-39
2023/07/01 07:41:33;;;;;;;;;7.00;7.00;;;;;22.53;50.06;100087.05;110262;1249;18402;-40
2023/07/01 07:44:01;;;;;;;;;4.50;4.50;;;;;22.59;49.82;100081.52;110188;1260;19972;-41
2023/07/01 07:46:28;;;;;;;;;7.00;5.00;;;;;22.67;49.59;100074.05;110206;1251;20656;-40
2023/07/01 07:48:55;;;;;;;;;6.33;6.33;;;;;22.68;49.05;100067.77;110163;1250;19824;-41
2023/07/01 07:51:23;;;;;;;;;7.67;7.67;;;;;22.71;48.48;100065.45;110197;1260;18652;-41
2023/07/01 07:53:50;;;;;;;;;7.00;5.00;;;;;22.74;48.24;100065.55;110116;1265;20867;-39
2023/07/01 07:56:18;;;;;;;;;4.00;4.00;;;;;22.83;47.90;100063.39;110138;1251;19628;-38
2023/07/01 07:58:45;;;;;;;;;7.00;7.00;;;;;22.85;47.50;100057.09;110128;1265;22648;-38
2023/07/01 08:01:13;;;;;;;;;9.00;8.00;;;;;22.90;46.74;100057.71;110155;1250;20761;-39
2023/07/01 08:03:40;;;;;;;;;8.00;8.00;;;;;22.91;46.55;100059.48;110185;1265;19631;-38
2023/07/01 08:06:08;;;;;;;;;6.00;6.00;;;;;23.03;46.90;100053.48;110279;1265;20005;-40
2023/07/01 08:08:35;;;;;;;;;7.33;6.67;;;;;23.11;46.07;100051.02;110284;1265;19550;-39
2023/07/01 08:11:02;;;;;;;;;7.00;6.00;;;;;23.18;45.98;100046.02;110255;1251;19742;-39
2023/07/01 08:13:32;;;;;;;;;9.00;8.00;;;;;23.20;45.94;100046.86;110228;1265;20177;-39
2023/07/01 08:16:00;;;;;;;;;7.33;7.33;;;;;23.25;45.79;100042.44;110254;1265;21143;-39
2023/07/01 08:18:28;;;;;;;;;9.00;8.00;;;;;23.20;45.61;100047.06;110247;1265;18786;-40
2023/07/01 08:20:55;;;;;;;;;9.00;8.00;;;;;23.22;46.13;100039.20;110195;1260;18794;-40
2023/07/01 08:23:23;;;;;;;;;13.00;13.00;;;;;23.17;46.03;100043.31;110160;1265;19370;-39
2023/07/01 08:25:50;;;;;;;;;12.00;12.00;;;;;23.25;46.41;100044.08;110140;1258;19146;-40
2023/07/01 08:28:18;;;;;;;;;12.00;12.00;;;;;23.33;46.70;100051.54;110138;1249;23344;-40
2023/07/01 08:30:45;;;;;;;;;8.00;8.00;;;;;23.40;46.89;100048.70;110096;1265;20956;-40
2023/07/01 08:33:13;;;;;;;;;8.00;8.00;;;;;23.28;46.36;100047.90;110073;1265;18666;-40
2023/07/01 08:35:41;;;;;;;;;8.00;8.00;;;;;23.25;46.56;100044.38;110138;1265;22123;-39
2023/07/01 08:38:08;;;;;;;;;8.00;8.00;;;;;23.46;46.68;100049.02;110268;1265;20813;-40
2023/07/01 08:40:35;;;;;;;;;8.00;8.00;;;;;23.48;46.77;100044.55;110220;1265;18429;-39
2023/07/01 08:43:03;;;;;;;;;6.00;6.00;;;;;23.53;47.18;100042.38;110167;1265;18620;-40
2023/07/01 08:45:32;;;;;;;;;6.00;6.00;;;;;23.55;47.28;100038.52;110217;1251;20795;-40
2023/07/01 08:48:00;;;;;;;;;5.00;5.00;;;;;23.51;47.31;100039.70;110251;1260;19526;-39
2023/07/01 08:50:27;;;;;;;;;10.00;9.00;;;;;23.64;47.53;100032.17;110219;1257;20144;-40
2023/07/01 08:52:55;;;;;;;;;8.00;8.00;;;;;23.72;47.63;100032.08;110186;1260;22239;-41
2023/07/01 08:55:22;;;;;;;;;6.00;5.33;;;;;23.79;47.85;100030.45;110180;1265;18704;-41
2023/07/01 08:57:49;;;;;;;;;8.00;6.00;;;;;23.79;47.88;100030.42;110175;1251;19996;-40
2023/07/01 09:00:17;;;;;;;;;8.00;8.00;;;;;23.74;47.69;100033.34;110252;1260;20756;-40
2023/07/01 09:02:44;;;;;;;;;6.67;6.67;;;;;23.80;47.23;100032.33;110228;1251;19896;-41
2023/07/01 09:05:11;;;;;;;;;9.00;8.00;;;;;23.84;46.84;100029.52;110178;1265;21932;-40
2023/07/01 09:07:39;;;;;;;;;10.00;9.00;;;;;23.93;47.10;100032.19;110184;1265;19584;-40
2023/07/01 09:10:07;;;;;;;;;8.00;7.00;;;;;24.01;47.42;100029.64;110186;1265;19154;-40
2023/07/01 09:12:34;;;;;;;;;8.00;8.00;;;;;24.05;47.28;100024.95;110167;1265;19924;-40
2023/07/01 09:15:01;;;;;;;;;8.50;7.00;;;;;23.90;46.64;100022.30;110139;1251;22415;-39
2023/07/01 09:17:29;;;;;;;;;8.00;6.00;;;;;23.93;46.67;100018.96;110148;1251;19658;-41
2023/07/01 09:19:56;;;;;;;;;6.00;6.00;;;;;24.01;46.21;100020.88;110183;1251;22867;-39
2023/07/01 09:22:23;;;;;;;;;7.00;7.00;;;;;24.13;46.04;100017.59;110149;1251;20779;-41
2023/07/01 09:24:51;;;;;;;;;10.00;8.00;;;;;24.14;45.47;100009.55;110159;1265;19512;-41
2023/07/01 09:27:18;;;;;;;;;6.00;6.00;;;;;24.07;45.32;100012.98;110160;1260;22507;-40
2023/07/01 09:29:45;;;;;;;;;12.50;10.00;;;;;24.14;45.55;100007.23;110191;1266;19918;-40
2023/07/01 09:32:13;;;;;;;;;8.00;6.00;;;;;24.07;45.27;100003.46;110260;1265;18754;-41
2023/07/01 09:34:40;;;;;;;;;6.00;6.00;;;;;23.99;45.44;100002.36;110238;1265;20073;-40
2023/07/01 09:37:11;;;;;;;;;4.67;4.67;;;;;24.09;45.58;100001.73;110283;1265;20984;-40
2023/07/01 09:39:39;;;;;;;;;6.00;6.00;;;;;24.18;45.61;99998.58;110224;1265;19646;-41
2023/07/01 09:42:07;;;;;;;;;8.00;8.00;;;;;24.10;45.48;99993.64;110202;1265;21686;-41
2023/07/01 09:44:38;;;;;;;;;8.00;8.00;;;;;24.09;45.73;99992.52;110248;1249;20115;-40
2023/07/01 09:47:05;;;;;;;;;6.00;6.00;;;;;24.17;45.46;99987.92;110212;1265;18576;-40
2023/07/01 09:49:33;;;;;;;;;6.00;6.00;;;;;24.22;44.55;99984.36;110215;1260;20127;-40
2023/07/01 09:52:04;;;;;;;;;8.33;6.67;;;;;24.34;44.17;99986.13;110182;1265;20228;-41
2023/07/01 09:54:32;;;;;;;;;5.00;5.00;;;;;24.36;44.47;99983.27;110174;1251;20231;-40
2023/07/01 09:57:00;;;;;;;;;8.00;6.00;;;;;24.26;44.45;99972.64;110174;1265;18706;-38
2023/07/01 09:59:28;;;;;;;;;7.00;7.00;;;;;24.23;44.59;99976.36;110105;1265;20864;-40
2023/07/01 10:01:55;;;;;;;;;6.00;6.00;;;;;24.19;44.10;99972.88;109936;1266;19508;-40
2023/07/01 10:04:28;;;;;;;;;7.33;7.33;;;;;24.09;43.70;99969.05;110157;1249;21573;-41
2023/07/01 10:06:55;;;;;;;;;9.00;7.50;;;;;24.13;43.95;99972.66;110181;1265;19934;-40
2023/07/01 10:09:23;;;;;;;;;5.33;5.33;;;;;24.15;43.30;99970.38;110224;1266;19745;-40
2023/07/01 10:11:50;;;;;;;;;8.00;6.00;;;;;24.24;42.80;99969.48;110186;1251;22322;-41
2023/07/01 10:14:18;;;;;;;;;5.00;5.00;;;;;24.32;42.71;99967.80;110226;1265;19445;-41
2023/07/01 10:16:46;;;;;;;;;8.67;8.67;;;;;24.35;43.12;99967.92;110212;1265;19859;-40
2023/07/01 10:19:14;;;;;;;;;12.00;10.00;;;;;24.42;43.29;99967.83;110237;1265;19217;-41
2023/07/01 10:21:41;;;;;;;;;9.33;8.67;;;;;24.51;43.01;99962.86;110238;1260;19524;-41
2023/07/01 10:24:09;;;;;;;;;8.00;6.00;;;;;24.47;42.38;99958.52;110242;1266;20380;-39
2023/07/01 10:26:36;;;;;;;;;8.00;8.00;;;;;24.45;41.71;99956.00;110171;1265;18955;-41
2023/07/01 10:29:03;;;;;;;;;5.00;4.33;;;;;24.45;40.84;99951.32;110155;1251;20790;-41
2023/07/01 10:31:31;;;;;;;;;5.00;5.00;;;;;24.38;40.97;99948.08;110248;1251;22210;-40
2023/07/01 10:33:58;;;;;;;;;6.00;5.00;;;;;24.40;41.39;99947.34;110116;1265;19966;-41
2023/07/01 10:36:25;;;;;;;;;6.00;6.00;;;;;24.44;41.08;99943.73;110258;1250;22292;-41
2023/07/01 10:38:53;;;;;;;;;6.00;6.00;;;;;24.46;41.22;99942.38;110283;1265;19772;-41
2023/07/01 10:41:21;;;;;;;;;6.00;5.00;;;;;24.49;41.18;99935.37;110273;1265;18536;-41
2023/07/01 10:43:48;;;;;;;;;8.00;7.00;;;;;24.49;41.34;99935.20;110149;1265;19695;-41
2023/07/01 10:46:15;;;;;;;;;8.00;8.00;;;;;24.51;41.48;99931.15;110282;1265;22143;-42
2023/07/01 10:48:43;;;;;;;;;6.00;6.00;;;;;24.46;41.39;99927.63;110283;1265;18749;-42
2023/07/01 10:51:10;;;;;;;;;8.00;6.00;;;;;24.44;41.02;99923.30;110232;1251;20772;-41
2023/07/01 10:53:37;;;;;;;;;5.00;5.00;;;;;24.41;40.59;99916.88;110112;1260;19804;-41
2023/07/01 10:56:05;;;;;;;;;8.00;6.00;;;;;24.37;40.98;99915.73;110281;1251;20114;-41
2023/07/01 10:58:32;;;;;;;;;5.50;5.00;;;;;24.41;41.42;99914.27;110273;1251;20743;-41
2023/07/01 11:00:59;;;;;;;;;5.00;5.00;;;;;24.42;41.85;99916.36;110179;1251;18353;-41
2023/07/01 11:03:27;;;;;;;;;6.00;6.00;;;;;24.38;42.12;99910.59;110157;1265;18636;-41
2023/07/01 11:05:54;;;;;;;;;5.50;5.50;;;;;24.39;42.07;99912.27;110222;1251;22206;-41
2023/07/01 11:08:21;;;;;;;;;6.00;6.00;;;;;24.39;41.43;99912.77;110140;1251;18387;-42
2023/07/01 11:10:49;;;;;;;;;6.00;6.00;;;;;24.46;40.88;99916.80;110159;1260;22001;-41
2023/07/01 11:13:16;;;;;;;;;8.00;8.00;;;;;24.46;41.10;99910.86;110192;1251;20807;-42
2023/07/01 11:15:43;;;;;;;;;8.00;6.00;;;;;24.38;40.32;99907.38;110282;1251;22492;-44